Terminal Aerodrome Forecast
Issued by NWS

Home | Current Version | Previous Version | Text Only | Print | Product List | Glossary Off
Versions: 1 2 3 4 5 6 7 8 9 10 11 12 13 14 15 16 17 18

225
FTUS43 KMPX 170157 AAA
TAFRNH
TAF AMD
KRNH 170157Z 1702/1724 09009KT 6SM BR SCT020 BKN035
      TEMPO 1703/1705 3SM -RA BR OVC025
     FM170500 11006KT 4SM -SHRA BR OVC015
     FM170800 18004KT 2SM -SHRA BR OVC004
     FM171400 28008KT 3SM -SHRA BR OVC005
     FM171700 30010G17KT 2SM -DZ BR OVC007
     FM172200 31014G21KT P6SM OVC015=

USA.gov is the U.S. government's official web portal to all federal, state and local government web resources and services.